Fords Creek, Mississippi
Current Conditions -  °F | °C
As of 5:53 AM on Thursday 27 Nov 2014 (Local Time) from KHBG Reporting Station
Clear Clear  
Wind Chill: 40°   Ceiling: Unl
Heat Index: 40°   Visibility: 10mi
Dew Point: 33°   Wind: 0mph
Humidity: 77%   Direction: NA
Pressure: 30.37"   Gusts: NA
Location:  30.8781°N, 89.5858°W
Report Text: KHBG 271153Z AUTO 00000KT 10SM CLR 04/01 A3037 RMK AO2 SLP282 T00440006 10072 20033 53022
Loading
Personal Weather Stations






























Interactive Weather Map New forecast layout! Learn more

10-Day Weather Forecast

Advertisements
Track Severe Weather on mobile